Time;durP1;ratioP1;P1;durP2;ratioP2;P2;SDS_P1;SDS_P2;PMS_P1;PMS_P2;Temp;Humidity;BMP_temperature;BMP_pressure;BME280_temperature;BME280_humidity;BME280_pressure;Samples;Min_cycle;Max_cycle;Signal;HPM_P1;HPM_P2
2022/03/01 00:02:17;;;;;;;16.65;10.77;;;;;;;;;;5051923;28;20188;-82
2022/03/01 00:04:43;;;;;;;14.95;11.00;;;;;;;;;;5049137;28;20206;-81
2022/03/01 00:07:09;;;;;;;14.27;10.88;;;;;;;;;;5053173;28;20178;-81
2022/03/01 00:09:36;;;;;;;15.07;10.23;;;;;;;;;;5037973;28;20175;-81
2022/03/01 00:12:02;;;;;;;14.10;11.30;;;;;;;;;;5039856;28;20167;-82
2022/03/01 00:14:28;;;;;;;15.75;11.60;;;;;;;;;;5042501;28;20669;-81
2022/03/01 00:16:54;;;;;;;15.15;11.35;;;;;;;;;;5010350;28;20194;-82
2022/03/01 00:19:20;;;;;;;17.95;11.02;;;;;;;;;;5038486;28;20211;-82
2022/03/01 00:21:47;;;;;;;13.45;10.10;;;;;;;;;;5023360;28;20179;-82
2022/03/01 00:24:13;;;;;;;20.85;11.77;;;;;;;;;;5052843;28;20191;-82
2022/03/01 00:26:39;;;;;;;13.43;9.30;;;;;;;;;;5043678;28;20191;-82
2022/03/01 00:29:05;;;;;;;15.43;10.65;;;;;;;;;;5026588;28;20191;-82
2022/03/01 00:31:31;;;;;;;14.15;9.88;;;;;;;;;;5046529;28;20186;-82
2022/03/01 00:33:57;;;;;;;13.63;10.38;;;;;;;;;;5026565;28;20731;-82
2022/03/01 00:36:23;;;;;;;15.70;10.90;;;;;;;;;;5039278;28;20183;-81
2022/03/01 00:38:49;;;;;;;13.70;10.18;;;;;;;;;;5039326;28;20226;-82
2022/03/01 00:41:15;;;;;;;15.73;10.90;;;;;;;;;;5021779;28;20223;-82
2022/03/01 00:43:41;;;;;;;15.57;11.55;;;;;;;;;;5021474;28;20198;-82
2022/03/01 00:46:07;;;;;;;16.37;9.93;;;;;;;;;;5021320;28;20248;-82
2022/03/01 00:48:33;;;;;;;13.55;10.30;;;;;;;;;;5036384;28;20430;-82
2022/03/01 00:51:00;;;;;;;12.23;9.77;;;;;;;;;;5049592;28;20711;-82
2022/03/01 00:53:25;;;;;;;14.50;10.32;;;;;;;;;;5021031;28;20201;-81
2022/03/01 00:55:51;;;;;;;17.60;10.95;;;;;;;;;;5049859;28;20668;-82
2022/03/01 00:58:17;;;;;;;14.00;9.10;;;;;;;;;;5010088;28;20206;-82
2022/03/01 01:00:43;;;;;;;16.03;10.47;;;;;;;;;;5020012;28;20194;-82
2022/03/01 01:03:09;;;;;;;15.82;11.25;;;;;;;;;;5040547;28;20506;-82
2022/03/01 01:05:35;;;;;;;15.43;10.87;;;;;;;;;;5040396;28;20190;-82
2022/03/01 01:08:02;;;;;;;14.35;10.48;;;;;;;;;;5014602;28;20457;-82
2022/03/01 01:10:28;;;;;;;14.73;9.95;;;;;;;;;;5043649;28;20187;-82
2022/03/01 01:12:54;;;;;;;15.13;10.10;;;;;;;;;;5011410;28;20206;-82
2022/03/01 01:15:20;;;;;;;15.10;10.65;;;;;;;;;;5041575;28;20193;-81
2022/03/01 01:17:46;;;;;;;15.27;11.30;;;;;;;;;;5045712;28;20226;-82
2022/03/01 01:20:13;;;;;;;14.85;10.00;;;;;;;;;;5051264;28;20221;-82
2022/03/01 01:22:39;;;;;;;14.38;10.30;;;;;;;;;;5055000;28;20183;-82
2022/03/01 01:25:06;;;;;;;14.90;10.63;;;;;;;;;;5055520;28;20731;-82
2022/03/01 01:27:32;;;;;;;17.40;10.88;;;;;;;;;;5018569;28;20217;-82
2022/03/01 01:29:58;;;;;;;15.07;10.15;;;;;;;;;;5045658;28;20643;-82
2022/03/01 01:32:24;;;;;;;13.30;9.55;;;;;;;;;;5031168;28;20190;-82
2022/03/01 01:34:50;;;;;;;18.48;11.02;;;;;;;;;;5028889;28;20214;-82
2022/03/01 01:37:16;;;;;;;15.70;11.35;;;;;;;;;;5009375;28;20213;-81
2022/03/01 01:39:42;;;;;;;14.57;10.73;;;;;;;;;;5023038;28;20269;-81
2022/03/01 01:42:08;;;;;;;17.50;11.82;;;;;;;;;;5021146;28;20174;-82
2022/03/01 01:44:34;;;;;;;14.07;10.35;;;;;;;;;;5027869;28;20189;-82
2022/03/01 01:47:00;;;;;;;18.02;12.43;;;;;;;;;;5023785;28;20214;-82
2022/03/01 01:49:26;;;;;;;16.83;11.20;;;;;;;;;;5023492;28;20241;-82
2022/03/01 01:51:53;;;;;;;13.57;10.15;;;;;;;;;;5044207;28;20189;-82
2022/03/01 01:54:19;;;;;;;19.98;11.55;;;;;;;;;;5021812;28;20186;-82
2022/03/01 01:56:45;;;;;;;14.43;10.82;;;;;;;;;;5045176;28;20434;-82
2022/03/01 01:59:11;;;;;;;15.35;9.98;;;;;;;;;;5013157;28;20216;-81
2022/03/01 02:01:37;;;;;;;15.77;10.45;;;;;;;;;;5033399;28;20195;-82
2022/03/01 02:04:03;;;;;;;16.50;10.02;;;;;;;;;;5024961;28;20675;-82
2022/03/01 02:06:29;;;;;;;13.77;10.07;;;;;;;;;;5040320;28;20171;-82
2022/03/01 02:08:55;;;;;;;15.30;10.07;;;;;;;;;;5047684;28;20183;-82
2022/03/01 02:11:21;;;;;;;12.50;9.93;;;;;;;;;;5013159;28;20214;-82
2022/03/01 02:13:47;;;;;;;16.50;10.55;;;;;;;;;;5012626;28;20652;-82
2022/03/01 02:16:14;;;;;;;17.15;11.60;;;;;;;;;;5019951;28;20182;-81
2022/03/01 02:18:40;;;;;;;16.92;10.85;;;;;;;;;;5039160;28;20224;-82
2022/03/01 02:21:06;;;;;;;14.63;9.95;;;;;;;;;;5064060;28;20241;-81
2022/03/01 02:23:32;;;;;;;14.13;10.73;;;;;;;;;;5017453;28;20210;-82
2022/03/01 02:25:58;;;;;;;16.13;10.52;;;;;;;;;;5007882;28;20194;-81
2022/03/01 02:28:24;;;;;;;15.73;10.10;;;;;;;;;;5012273;28;20194;-82
2022/03/01 02:30:50;;;;;;;14.40;10.07;;;;;;;;;;5048675;28;20901;-82
2022/03/01 02:33:16;;;;;;;12.40;10.05;;;;;;;;;;5037141;28;20183;-82
2022/03/01 02:35:42;;;;;;;14.27;11.43;;;;;;;;;;5027410;28;20191;-81
2022/03/01 02:38:08;;;;;;;15.73;11.38;;;;;;;;;;5040259;28;20213;-82
2022/03/01 02:40:34;;;;;;;15.52;9.80;;;;;;;;;;5016982;28;20225;-82
2022/03/01 02:43:00;;;;;;;13.05;9.48;;;;;;;;;;5023491;28;20187;-82
2022/03/01 02:45:26;;;;;;;14.77;10.43;;;;;;;;;;5021796;28;20229;-81
2022/03/01 02:47:52;;;;;;;16.75;11.73;;;;;;;;;;5044149;28;20206;-82
2022/03/01 02:50:18;;;;;;;13.80;10.63;;;;;;;;;;5043213;28;20274;-82
2022/03/01 02:52:44;;;;;;;15.27;9.68;;;;;;;;;;5022457;28;20229;-82
2022/03/01 02:55:11;;;;;;;12.30;10.20;;;;;;;;;;5020148;28;20190;-81
2022/03/01 02:57:37;;;;;;;11.48;10.02;;;;;;;;;;5020780;28;20341;-81
2022/03/01 03:00:06;;;;;;;14.50;10.30;;;;;;;;;;5054240;28;20253;-82
2022/03/01 03:02:32;;;;;;;17.85;9.80;;;;;;;;;;5025470;28;20433;-82
2022/03/01 03:04:58;;;;;;;12.90;9.98;;;;;;;;;;5036649;28;20198;-82
2022/03/01 03:07:24;;;;;;;15.25;11.15;;;;;;;;;;5024754;28;20420;-81
2022/03/01 03:09:50;;;;;;;16.88;10.88;;;;;;;;;;5007762;28;20245;-82
2022/03/01 03:12:18;;;;;;;15.57;10.10;;;;;;;;;;5009921;28;20202;-82
2022/03/01 03:14:45;;;;;;;12.80;9.45;;;;;;;;;;5043068;28;20571;-81
2022/03/01 03:17:11;;;;;;;13.77;9.57;;;;;;;;;;5017025;28;20175;-81
2022/03/01 03:19:37;;;;;;;15.95;10.32;;;;;;;;;;5020712;28;20542;-82
2022/03/01 03:22:05;;;;;;;15.43;10.48;;;;;;;;;;5054801;28;20317;-81
2022/03/01 03:24:31;;;;;;;13.63;9.20;;;;;;;;;;5048205;28;20179;-82
2022/03/01 03:26:58;;;;;;;14.63;10.75;;;;;;;;;;5013723;28;20174;-82
2022/03/01 03:29:24;;;;;;;13.60;10.25;;;;;;;;;;5024785;28;20195;-81
2022/03/01 03:31:54;;;;;;;11.40;9.30;;;;;;;;;;5027161;28;20652;-82
2022/03/01 03:34:20;;;;;;;14.90;10.45;;;;;;;;;;5026636;28;20198;-81
2022/03/01 03:36:46;;;;;;;13.10;10.07;;;;;;;;;;5008088;28;20187;-81
2022/03/01 03:39:12;;;;;;;12.02;9.15;;;;;;;;;;5009771;28;20238;-82
2022/03/01 03:41:39;;;;;;;13.55;10.10;;;;;;;;;;5022790;28;20201;-82
2022/03/01 03:44:05;;;;;;;11.85;9.25;;;;;;;;;;5025646;28;20257;-81
2022/03/01 03:46:31;;;;;;;13.95;10.52;;;;;;;;;;5010972;28;20186;-81
2022/03/01 03:48:57;;;;;;;16.60;10.70;;;;;;;;;;5036138;28;20217;-82
2022/03/01 03:51:23;;;;;;;14.05;11.00;;;;;;;;;;5007985;28;20206;-81
2022/03/01 03:53:49;;;;;;;15.38;9.70;;;;;;;;;;5016347;28;20174;-82
2022/03/01 03:56:15;;;;;;;12.43;9.70;;;;;;;;;;5017298;28;20639;-82
2022/03/01 03:58:41;;;;;;;16.33;9.80;;;;;;;;;;5019250;28;20222;-82
2022/03/01 04:01:08;;;;;;;15.55;10.30;;;;;;;;;;5039188;28;20182;-82
2022/03/01 04:03:35;;;;;;;20.10;10.90;;;;;;;;;;5007123;28;20167;-82
2022/03/01 04:06:01;;;;;;;13.07;10.40;;;;;;;;;;5041877;28;20190;-81
2022/03/01 04:08:27;;;;;;;14.77;10.38;;;;;;;;;;5042198;28;20559;-82
2022/03/01 04:10:54;;;;;;;12.20;9.40;;;;;;;;;;5006976;28;20225;-82
2022/03/01 04:13:20;;;;;;;16.20;11.32;;;;;;;;;;5021422;28;20198;-82
2022/03/01 04:15:46;;;;;;;15.35;10.35;;;;;;;;;;5005740;28;20564;-82
2022/03/01 04:18:12;;;;;;;12.85;10.40;;;;;;;;;;5056327;28;20210;-82
2022/03/01 04:20:38;;;;;;;18.05;13.57;;;;;;;;;;5008330;28;20179;-82
2022/03/01 04:23:04;;;;;;;19.85;9.50;;;;;;;;;;5026325;28;20186;-82
2022/03/01 04:25:30;;;;;;;12.65;9.15;;;;;;;;;;5025929;28;20190;-82
2022/03/01 04:27:56;;;;;;;14.57;10.70;;;;;;;;;;5024309;28;20197;-81
2022/03/01 04:30:22;;;;;;;14.82;9.85;;;;;;;;;;5055298;28;20183;-82
2022/03/01 04:32:48;;;;;;;15.55;10.82;;;;;;;;;;5007312;28;20254;-82
2022/03/01 04:35:14;;;;;;;16.13;10.75;;;;;;;;;;5010773;28;20331;-82
2022/03/01 04:37:41;;;;;;;12.10;9.75;;;;;;;;;;5043711;28;20210;-82
2022/03/01 04:40:09;;;;;;;14.35;9.77;;;;;;;;;;5027355;28;20214;-81
2022/03/01 04:42:35;;;;;;;15.65;10.38;;;;;;;;;;5024256;28;20178;-82
2022/03/01 04:45:02;;;;;;;12.75;8.80;;;;;;;;;;5046346;28;20214;-82
2022/03/01 04:47:29;;;;;;;12.45;9.80;;;;;;;;;;5021858;28;20190;-82
2022/03/01 04:49:55;;;;;;;14.43;10.23;;;;;;;;;;5036762;28;20214;-81
2022/03/01 04:52:21;;;;;;;13.10;11.15;;;;;;;;;;5046548;28;20194;-82
2022/03/01 04:54:47;;;;;;;13.90;10.20;;;;;;;;;;5009593;28;20187;-82
2022/03/01 04:57:13;;;;;;;12.93;10.18;;;;;;;;;;5021524;28;20230;-82
2022/03/01 04:59:39;;;;;;;12.82;9.85;;;;;;;;;;5025773;28;20233;-82
2022/03/01 05:02:05;;;;;;;17.60;10.40;;;;;;;;;;5029640;28;20187;-82
2022/03/01 05:04:31;;;;;;;13.63;10.15;;;;;;;;;;5041188;28;20198;-82
2022/03/01 05:06:57;;;;;;;12.50;10.43;;;;;;;;;;5013843;28;20187;-82
2022/03/01 05:09:24;;;;;;;13.25;10.25;;;;;;;;;;5009750;28;20202;-82
2022/03/01 05:11:50;;;;;;;16.48;10.25;;;;;;;;;;5045844;28;20171;-82
2022/03/01 05:14:17;;;;;;;14.88;10.05;;;;;;;;;;5041416;28;20198;-82
2022/03/01 05:16:43;;;;;;;13.85;9.90;;;;;;;;;;5032290;28;20224;-82
2022/03/01 05:19:09;;;;;;;14.27;10.70;;;;;;;;;;5025645;28;20202;-82
2022/03/01 05:21:35;;;;;;;17.88;10.65;;;;;;;;;;5009401;28;20199;-82
2022/03/01 05:24:02;;;;;;;13.05;10.18;;;;;;;;;;5044663;28;20159;-82
2022/03/01 05:26:28;;;;;;;11.65;9.35;;;;;;;;;;5016669;28;20191;-82
2022/03/01 05:28:54;;;;;;;14.75;10.23;;;;;;;;;;5027616;28;20187;-82
2022/03/01 05:31:20;;;;;;;15.88;9.90;;;;;;;;;;5013364;28;20194;-82
2022/03/01 05:33:46;;;;;;;11.60;10.30;;;;;;;;;;5030208;28;20254;-82
2022/03/01 05:36:13;;;;;;;11.55;10.18;;;;;;;;;;5014843;28;20222;-82
2022/03/01 05:38:39;;;;;;;12.20;9.15;;;;;;;;;;5030771;28;20210;-82
2022/03/01 05:41:05;;;;;;;19.67;11.77;;;;;;;;;;5024193;28;20705;-82
2022/03/01 05:43:31;;;;;;;13.70;10.07;;;;;;;;;;5023996;28;20210;-82
2022/03/01 05:45:57;;;;;;;13.23;10.70;;;;;;;;;;5009484;28;20195;-82
2022/03/01 05:48:23;;;;;;;13.00;10.70;;;;;;;;;;5059906;28;20182;-82
2022/03/01 05:50:49;;;;;;;14.00;10.55;;;;;;;;;;5063023;28;20182;-82
2022/03/01 05:53:16;;;;;;;14.77;10.93;;;;;;;;;;5044551;28;20186;-82
2022/03/01 05:55:42;;;;;;;14.18;11.05;;;;;;;;;;5049211;28;20592;-82
2022/03/01 05:58:08;;;;;;;15.05;10.00;;;;;;;;;;5019093;28;20214;-82
2022/03/01 06:00:34;;;;;;;14.00;10.65;;;;;;;;;;5031286;28;20247;-82
2022/03/01 06:03:00;;;;;;;17.17;12.15;;;;;;;;;;5053982;28;20241;-82
2022/03/01 06:05:29;;;;;;;15.45;11.43;;;;;;;;;;5039286;28;20467;-82
2022/03/01 06:07:58;;;;;;;14.95;11.88;;;;;;;;;;5032492;28;20178;-82
2022/03/01 06:10:25;;;;;;;14.27;10.35;;;;;;;;;;5024132;28;20190;-82
2022/03/01 06:12:51;;;;;;;16.80;13.15;;;;;;;;;;5023766;28;20187;-82
2022/03/01 06:15:17;;;;;;;15.63;10.35;;;;;;;;;;5009809;28;20210;-82
2022/03/01 06:17:43;;;;;;;14.57;10.57;;;;;;;;;;5045569;28;20334;-83
2022/03/01 06:20:10;;;;;;;15.35;11.23;;;;;;;;;;5044702;28;20179;-82
2022/03/01 06:22:36;;;;;;;16.90;12.00;;;;;;;;;;5040661;28;20206;-82
2022/03/01 06:25:02;;;;;;;14.35;11.32;;;;;;;;;;5022300;28;20186;-82
2022/03/01 06:27:28;;;;;;;16.83;11.55;;;;;;;;;;5053277;28;20184;-82
2022/03/01 06:29:54;;;;;;;14.15;10.70;;;;;;;;;;5011690;28;20171;-82
2022/03/01 06:32:20;;;;;;;14.38;9.65;;;;;;;;;;5009377;28;20179;-82
2022/03/01 06:34:47;;;;;;;10.98;9.55;;;;;;;;;;5027455;28;20218;-82
2022/03/01 06:37:13;;;;;;;14.05;10.88;;;;;;;;;;5032786;28;20191;-82
2022/03/01 06:39:43;;;;;;;13.07;10.10;;;;;;;;;;5039879;28;20229;-82
2022/03/01 06:42:10;;;;;;;13.65;9.75;;;;;;;;;;5007183;28;20551;-82
2022/03/01 06:44:36;;;;;;;17.52;11.20;;;;;;;;;;5023346;28;20588;-82
2022/03/01 06:47:02;;;;;;;13.93;11.00;;;;;;;;;;5036332;28;20524;-82
2022/03/01 06:49:28;;;;;;;15.02;10.27;;;;;;;;;;5018579;28;20260;-82
2022/03/01 06:51:54;;;;;;;14.13;10.70;;;;;;;;;;5023330;28;20254;-82
2022/03/01 06:54:20;;;;;;;16.33;10.95;;;;;;;;;;5009581;28;20175;-84
2022/03/01 06:56:47;;;;;;;17.93;11.57;;;;;;;;;;5051619;28;20218;-85
2022/03/01 06:59:14;;;;;;;12.45;10.68;;;;;;;;;;5048340;28;20458;-84
2022/03/01 07:01:40;;;;;;;17.77;12.30;;;;;;;;;;5044066;28;20182;-84
2022/03/01 07:04:06;;;;;;;16.58;11.75;;;;;;;;;;5041968;28;20616;-85
2022/03/01 07:06:32;;;;;;;17.30;11.15;;;;;;;;;;5043323;28;20189;-85
2022/03/01 07:08:58;;;;;;;16.33;12.10;;;;;;;;;;5038873;28;20194;-85
2022/03/01 07:11:24;;;;;;;17.55;11.27;;;;;;;;;;5012243;28;20445;-85
2022/03/01 07:13:50;;;;;;;15.23;11.57;;;;;;;;;;5039678;28;20304;-85
2022/03/01 07:16:16;;;;;;;25.23;13.43;;;;;;;;;;5026546;28;20209;-86
2022/03/01 07:18:42;;;;;;;16.52;12.70;;;;;;;;;;5040011;28;20229;-86
2022/03/01 07:21:09;;;;;;;16.90;12.90;;;;;;;;;;5005680;28;20179;-85
2022/03/01 07:23:35;;;;;;;17.67;13.30;;;;;;;;;;5027177;28;20195;-85
2022/03/01 07:26:04;;;;;;;16.40;12.80;;;;;;;;;;5007642;28;20195;-85
2022/03/01 07:28:30;;;;;;;16.20;12.18;;;;;;;;;;5026813;28;20194;-86
2022/03/01 07:30:57;;;;;;;19.38;12.95;;;;;;;;;;5039276;28;20186;-84
2022/03/01 07:33:23;;;;;;;18.00;12.30;;;;;;;;;;5020028;28;20171;-84
2022/03/01 07:35:49;;;;;;;17.60;12.90;;;;;;;;;;5007818;28;20186;-84
2022/03/01 07:38:15;;;;;;;20.35;14.27;;;;;;;;;;5007732;28;20274;-85
2022/03/01 07:40:41;;;;;;;18.08;13.60;;;;;;;;;;5033639;28;20285;-85
2022/03/01 07:43:08;;;;;;;18.58;13.43;;;;;;;;;;5029226;28;20959;-85
2022/03/01 07:45:35;;;;;;;18.73;12.80;;;;;;;;;;5021793;28;20198;-85
2022/03/01 07:48:02;;;;;;;21.20;13.98;;;;;;;;;;5056178;28;20183;-85
2022/03/01 07:50:28;;;;;;;18.98;13.43;;;;;;;;;;5032430;28;20607;-85
2022/03/01 07:52:54;;;;;;;16.58;13.00;;;;;;;;;;5044757;28;20253;-86
2022/03/01 07:55:21;;;;;;;19.10;13.90;;;;;;;;;;5027339;28;20186;-86
2022/03/01 07:57:47;;;;;;;19.23;13.52;;;;;;;;;;5015552;28;20202;-85
2022/03/01 08:00:13;;;;;;;22.65;15.65;;;;;;;;;;5049745;28;20185;-87
2022/03/01 08:02:40;;;;;;;22.58;16.27;;;;;;;;;;5052976;28;20206;-86
2022/03/01 08:05:06;;;;;;;20.42;15.93;;;;;;;;;;5020069;28;20191;-87
2022/03/01 08:07:33;;;;;;;18.52;14.80;;;;;;;;;;5015288;28;20266;-85
2022/03/01 08:09:59;;;;;;;19.75;14.98;;;;;;;;;;5047291;28;20719;-86
2022/03/01 08:12:26;;;;;;;20.00;14.75;;;;;;;;;;5028562;28;20184;-86
2022/03/01 08:14:51;;;;;;;21.20;14.93;;;;;;;;;;5037206;28;20182;-86
2022/03/01 08:17:19;;;;;;;22.20;15.65;;;;;;;;;;5051015;28;20190;-87
2022/03/01 08:19:45;;;;;;;18.85;14.52;;;;;;;;;;5043264;28;20187;-87
2022/03/01 08:22:11;;;;;;;23.25;15.82;;;;;;;;;;5035816;28;20187;-86
2022/03/01 08:24:37;;;;;;;22.30;14.80;;;;;;;;;;5051703;28;20179;-87
2022/03/01 08:27:03;;;;;;;22.48;16.63;;;;;;;;;;5048143;28;20501;-88
2022/03/01 08:29:29;;;;;;;22.60;16.15;;;;;;;;;;5021871;28;20236;-85
2022/03/01 08:31:56;;;;;;;23.10;18.08;;;;;;;;;;5039876;28;20186;-87
2022/03/01 08:34:22;;;;;;;25.90;17.20;;;;;;;;;;5056309;28;20713;-87
2022/03/01 08:36:48;;;;;;;24.02;16.77;;;;;;;;;;5010691;28;20190;-87
2022/03/01 08:39:14;;;;;;;26.13;17.00;;;;;;;;;;5056166;28;20229;-87
2022/03/01 08:41:40;;;;;;;24.60;17.73;;;;;;;;;;5031502;28;20198;-87
2022/03/01 08:44:06;;;;;;;22.27;16.63;;;;;;;;;;5056017;28;20277;-87
2022/03/01 08:46:33;;;;;;;24.75;17.05;;;;;;;;;;5057066;28;20196;-88
2022/03/01 08:48:59;;;;;;;19.23;16.55;;;;;;;;;;5047741;28;20182;-87
2022/03/01 08:51:28;;;;;;;24.75;16.85;;;;;;;;;;5007167;28;20183;-87
2022/03/01 08:53:54;;;;;;;22.98;17.10;;;;;;;;;;5048786;28;20174;-87
2022/03/01 08:56:21;;;;;;;26.45;18.95;;;;;;;;;;5056457;28;20201;-87
2022/03/01 08:58:47;;;;;;;29.80;18.67;;;;;;;;;;5046139;28;20224;-87
2022/03/01 09:01:14;;;;;;;25.52;19.15;;;;;;;;;;5024377;28;20186;-88
2022/03/01 09:03:40;;;;;;;24.52;19.05;;;;;;;;;;5009845;28;20248;-86
2022/03/01 09:06:07;;;;;;;22.60;18.67;;;;;;;;;;5013067;28;20191;-86
2022/03/01 09:08:34;;;;;;;22.55;18.42;;;;;;;;;;5024229;28;20717;-86
2022/03/01 09:11:00;;;;;;;27.08;19.92;;;;;;;;;;5058168;28;20261;-88
2022/03/01 09:13:27;;;;;;;28.45;19.67;;;;;;;;;;5051714;28;20257;-87
2022/03/01 09:15:53;;;;;;;28.80;20.83;;;;;;;;;;5041786;28;20193;-87
2022/03/01 09:18:21;;;;;;;29.33;21.58;;;;;;;;;;5054457;28;20275;-87
2022/03/01 09:20:47;;;;;;;28.45;20.35;;;;;;;;;;5023463;28;20411;-88
2022/03/01 09:23:13;;;;;;;26.40;20.83;;;;;;;;;;5045662;28;20565;-87
2022/03/01 09:25:39;;;;;;;25.80;20.23;;;;;;;;;;5048262;28;20192;-87
2022/03/01 09:28:05;;;;;;;26.17;19.92;;;;;;;;;;5066836;28;20222;-87
2022/03/01 09:30:31;;;;;;;28.23;18.85;;;;;;;;;;5019982;28;20183;-87
2022/03/01 09:32:57;;;;;;;31.83;19.77;;;;;;;;;;5044536;28;20187;-85
2022/03/01 09:35:23;;;;;;;26.88;20.25;;;;;;;;;;5016099;28;20206;-87
2022/03/01 09:37:50;;;;;;;26.00;19.13;;;;;;;;;;5017646;28;20203;-87
2022/03/01 09:40:16;;;;;;;28.88;19.63;;;;;;;;;;5045939;28;20250;-86
2022/03/01 09:42:43;;;;;;;28.02;20.90;;;;;;;;;;5037493;28;20333;-88
2022/03/01 09:45:10;;;;;;;28.30;19.75;;;;;;;;;;5044378;28;20194;-87
2022/03/01 09:47:36;;;;;;;26.65;18.98;;;;;;;;;;5013585;28;20187;-87
2022/03/01 09:50:03;;;;;;;27.02;18.92;;;;;;;;;;5045067;28;20187;-87
2022/03/01 09:52:29;;;;;;;25.88;17.60;;;;;;;;;;5045768;28;20202;-87
2022/03/01 09:54:55;;;;;;;21.20;16.30;;;;;;;;;;5009834;28;20201;-88
2022/03/01 09:57:21;;;;;;;24.17;17.27;;;;;;;;;;5021581;28;20493;-87
2022/03/01 09:59:48;;;;;;;26.90;18.45;;;;;;;;;;5024396;28;20179;-89
2022/03/01 10:02:14;;;;;;;20.77;17.70;;;;;;;;;;5013643;28;20473;-89
2022/03/01 10:05:01;;;;;;;28.20;18.50;;;;;;;;;;5045433;28;20457;-89
2022/03/01 10:07:29;;;;;;;27.45;18.75;;;;;;;;;;5045984;28;20437;-89
2022/03/01 10:10:02;;;;;;;27.73;19.40;;;;;;;;;;5041461;28;20185;-88
2022/03/01 10:12:28;;;;;;;26.30;19.20;;;;;;;;;;5040836;28;20186;-88
2022/03/01 10:14:59;;;;;;;26.73;18.88;;;;;;;;;;5012902;28;20210;-87
2022/03/01 10:17:32;;;;;;;33.35;20.50;;;;;;;;;;5045192;28;20206;-88
2022/03/01 10:20:03;;;;;;;25.35;19.10;;;;;;;;;;5045452;28;20186;-88
2022/03/01 10:22:29;;;;;;;24.98;18.95;;;;;;;;;;5045976;28;20187;-89
2022/03/01 10:25:02;;;;;;;27.33;20.43;;;;;;;;;;5040822;28;20182;-87
2022/03/01 10:27:31;;;;;;;28.25;19.73;;;;;;;;;;5041358;28;20410;-87
2022/03/01 10:29:57;;;;;;;26.40;17.63;;;;;;;;;;5012150;28;20202;-87
2022/03/01 10:32:24;;;;;;;22.48;16.02;;;;;;;;;;5013422;28;20178;-87
2022/03/01 10:35:00;;;;;;;25.08;20.10;;;;;;;;;;5042250;28;20202;-87
2022/03/01 10:37:27;;;;;;;23.67;17.95;;;;;;;;;;5011882;28;20185;-87
2022/03/01 10:40:08;;;;;;;24.23;16.92;;;;;;;;;;5045960;28;20247;-87
2022/03/01 10:42:34;;;;;;;25.73;15.98;;;;;;;;;;5032718;28;20174;-87
2022/03/01 10:45:00;;;;;;;23.73;18.23;;;;;;;;;;5062469;28;20185;-87
2022/03/01 10:47:28;;;;;;;27.70;18.40;;;;;;;;;;5029409;28;20490;-86
2022/03/01 10:50:00;;;;;;;29.08;17.73;;;;;;;;;;5057116;28;20183;-87
2022/03/01 10:52:32;;;;;;;29.10;16.95;;;;;;;;;;5038237;28;20216;-86
2022/03/01 10:54:58;;;;;;;25.63;16.85;;;;;;;;;;5008633;28;20244;-88
2022/03/01 10:57:24;;;;;;;24.85;18.13;;;;;;;;;;5016884;28;20178;-86
2022/03/01 10:59:51;;;;;;;21.00;14.98;;;;;;;;;;5044117;28;20190;-87
2022/03/01 11:02:17;;;;;;;23.85;15.13;;;;;;;;;;5045972;28;20186;-88
2022/03/01 11:04:44;;;;;;;19.88;15.20;;;;;;;;;;5043718;28;20258;-88
2022/03/01 11:07:11;;;;;;;25.50;14.65;;;;;;;;;;5040970;28;20215;-87
2022/03/01 11:09:37;;;;;;;18.80;14.98;;;;;;;;;;5008399;28;20178;-86
2022/03/01 11:12:04;;;;;;;24.73;16.92;;;;;;;;;;5040506;28;20653;-85
2022/03/01 11:14:34;;;;;;;23.48;17.58;;;;;;;;;;5016221;28;20186;-85
2022/03/01 11:17:19;;;;;;;23.65;16.13;;;;;;;;;;5048005;28;20273;-84
2022/03/01 11:20:04;;;;;;;23.35;15.68;;;;;;;;;;5020987;28;20213;-89
2022/03/01 11:22:45;;;;;;;27.60;15.82;;;;;;;;;;5049465;28;20241;-88
2022/03/01 11:25:18;;;;;;;22.58;15.00;;;;;;;;;;5036581;28;20187;-87
2022/03/01 11:27:46;;;;;;;20.55;14.45;;;;;;;;;;5039164;28;20289;-89
2022/03/01 11:30:12;;;;;;;24.42;15.32;;;;;;;;;;5038166;28;20193;-87
2022/03/01 11:32:39;;;;;;;19.23;14.25;;;;;;;;;;5037168;28;20186;-88
2022/03/01 11:35:05;;;;;;;23.63;15.02;;;;;;;;;;5013896;28;20206;-86
2022/03/01 11:37:31;;;;;;;33.25;16.17;;;;;;;;;;5038697;28;20194;-87
2022/03/01 11:39:59;;;;;;;24.20;18.08;;;;;;;;;;5022421;28;20743;-87
2022/03/01 11:42:25;;;;;;;21.52;15.70;;;;;;;;;;5021945;28;20178;-86
2022/03/01 11:44:53;;;;;;;19.50;14.48;;;;;;;;;;5022672;28;20186;-86
2022/03/01 11:47:24;;;;;;;27.60;16.95;;;;;;;;;;5042253;28;20192;-87
2022/03/01 11:49:50;;;;;;;22.52;16.52;;;;;;;;;;5031845;28;20225;-87
2022/03/01 11:52:18;;;;;;;24.87;16.40;;;;;;;;;;5007391;28;20190;-87
2022/03/01 11:54:44;;;;;;;24.13;16.63;;;;;;;;;;5036790;28;20446;-86
2022/03/01 11:57:11;;;;;;;22.85;17.85;;;;;;;;;;5004941;28;20195;-87
2022/03/01 11:59:38;;;;;;;21.80;17.63;;;;;;;;;;5014477;28;20207;-86
2022/03/01 12:02:06;;;;;;;24.58;15.90;;;;;;;;;;5033060;28;20548;-87
2022/03/01 12:04:32;;;;;;;22.90;17.08;;;;;;;;;;5013390;28;20179;-87
2022/03/01 12:06:59;;;;;;;16.27;12.02;;;;;;;;;;5044283;28;20203;-87
2022/03/01 12:09:26;;;;;;;14.52;9.88;;;;;;;;;;5044914;28;20260;-88
2022/03/01 12:12:04;;;;;;;16.13;10.93;;;;;;;;;;5023145;28;20234;-88
2022/03/01 12:14:30;;;;;;;12.68;9.15;;;;;;;;;;5017188;28;20251;-89
2022/03/01 12:16:56;;;;;;;15.65;10.80;;;;;;;;;;5033214;28;20411;-88
2022/03/01 12:19:23;;;;;;;17.50;10.80;;;;;;;;;;5025536;28;20210;-88
2022/03/01 12:21:51;;;;;;;20.27;11.82;;;;;;;;;;5011470;28;20248;-87
2022/03/01 12:24:25;;;;;;;17.40;12.65;;;;;;;;;;5036670;28;20182;-87
2022/03/01 12:26:53;;;;;;;21.40;13.27;;;;;;;;;;5045465;28;20195;-87
2022/03/01 12:29:20;;;;;;;14.50;12.70;;;;;;;;;;5040794;28;20205;-89
2022/03/01 12:31:59;;;;;;;19.00;13.23;;;;;;;;;;5036040;28;20186;-87
2022/03/01 12:34:26;;;;;;;16.05;12.80;;;;;;;;;;5010791;28;20192;-88
2022/03/01 12:36:54;;;;;;;22.67;14.25;;;;;;;;;;5018427;28;20186;-86
2022/03/01 12:39:21;;;;;;;23.38;14.63;;;;;;;;;;5050770;28;20225;-87
2022/03/01 12:41:47;;;;;;;17.15;12.70;;;;;;;;;;5010610;28;20184;-87
2022/03/01 12:44:14;;;;;;;16.48;13.48;;;;;;;;;;5017872;28;20191;-87
2022/03/01 12:46:43;;;;;;;16.92;13.50;;;;;;;;;;5026466;28;20194;-87
2022/03/01 12:49:10;;;;;;;17.70;12.88;;;;;;;;;;5041179;28;20195;-88
2022/03/01 12:51:37;;;;;;;15.40;11.05;;;;;;;;;;5037917;28;20181;-87
2022/03/01 12:54:10;;;;;;;15.85;11.88;;;;;;;;;;5042287;28;20224;-87
2022/03/01 12:56:37;;;;;;;15.73;11.70;;;;;;;;;;5042957;28;20193;-87
2022/03/01 12:59:12;;;;;;;16.35;11.68;;;;;;;;;;5038398;28;20220;-87
2022/03/01 13:01:39;;;;;;;19.08;12.93;;;;;;;;;;5035051;28;20185;-87
2022/03/01 13:04:07;;;;;;;16.58;11.05;;;;;;;;;;5054450;28;20190;-89
2022/03/01 13:06:33;;;;;;;16.80;11.75;;;;;;;;;;5037962;28;20170;-87
2022/03/01 13:08:59;;;;;;;15.53;11.77;;;;;;;;;;5051320;28;20235;-87
2022/03/01 13:11:26;;;;;;;13.43;11.25;;;;;;;;;;5017673;28;20473;-87
2022/03/01 13:13:59;;;;;;;18.17;10.95;;;;;;;;;;5047387;28;20217;-87
2022/03/01 13:16:27;;;;;;;15.02;11.65;;;;;;;;;;5054049;28;20673;-86
2022/03/01 13:18:54;;;;;;;17.95;10.25;;;;;;;;;;5041774;28;20197;-87
2022/03/01 13:21:30;;;;;;;16.77;10.73;;;;;;;;;;5038648;28;20179;-87
2022/03/01 13:23:58;;;;;;;14.32;10.52;;;;;;;;;;5040417;28;20178;-86
2022/03/01 13:26:24;;;;;;;16.30;12.98;;;;;;;;;;5030155;28;20191;-87
2022/03/01 13:28:51;;;;;;;14.77;12.15;;;;;;;;;;5045674;28;20191;-88
2022/03/01 13:31:22;;;;;;;16.60;12.10;;;;;;;;;;5013433;28;20209;-87
2022/03/01 13:33:52;;;;;;;15.00;11.25;;;;;;;;;;5058255;28;20189;-85
2022/03/01 13:36:18;;;;;;;14.77;11.50;;;;;;;;;;5031125;28;20189;-87
2022/03/01 13:38:44;;;;;;;17.70;12.93;;;;;;;;;;5038077;28;20715;-86
2022/03/01 13:41:10;;;;;;;15.50;11.53;;;;;;;;;;5026398;28;20326;-86
2022/03/01 13:43:37;;;;;;;16.03;12.20;;;;;;;;;;5044071;28;20474;-85
2022/03/01 13:46:07;;;;;;;18.70;11.05;;;;;;;;;;5013048;28;20513;-86
2022/03/01 13:48:33;;;;;;;20.05;11.98;;;;;;;;;;5047786;28;20190;-87
2022/03/01 13:51:07;;;;;;;20.70;10.70;;;;;;;;;;5028577;28;20190;-87
2022/03/01 13:53:34;;;;;;;13.95;9.82;;;;;;;;;;5046813;28;20581;-86
2022/03/01 13:56:00;;;;;;;16.27;11.27;;;;;;;;;;5016491;28;20242;-85
2022/03/01 13:58:27;;;;;;;14.90;10.18;;;;;;;;;;5040504;28;20216;-86
2022/03/01 14:00:55;;;;;;;20.90;11.90;;;;;;;;;;5036128;28;20182;-86
2022/03/01 14:03:29;;;;;;;14.75;10.93;;;;;;;;;;5054132;28;20269;-85
2022/03/01 14:05:57;;;;;;;14.45;9.95;;;;;;;;;;5009512;28;20171;-85
2022/03/01 14:08:23;;;;;;;13.95;9.75;;;;;;;;;;5026135;28;20198;-85
2022/03/01 14:10:54;;;;;;;11.70;9.32;;;;;;;;;;5015835;28;20279;-86
2022/03/01 14:13:23;;;;;;;17.45;9.93;;;;;;;;;;5014539;28;20218;-85
2022/03/01 14:15:53;;;;;;;15.45;10.07;;;;;;;;;;5038730;28;20211;-85
2022/03/01 14:18:20;;;;;;;14.40;9.15;;;;;;;;;;5055157;28;20212;-84